sensor_id;sensor_type;location;lat;lon;timestamp;P1;durP1;ratioP1;P2;durP2;ratioP2
15716;SDS011;7960;50.908;4.204;2022-10-31T00:01:21;19.67;;;10.53;;
15716;SDS011;7960;50.908;4.204;2022-10-31T00:03:50;13.47;;;9.47;;
15716;SDS011;7960;50.908;4.204;2022-10-31T00:06:17;13.53;;;10.73;;
15716;SDS011;7960;50.908;4.204;2022-10-31T00:08:44;16.67;;;10.87;;
15716;SDS011;7960;50.908;4.204;2022-10-31T00:11:12;18.07;;;11.77;;
15716;SDS011;7960;50.908;4.204;2022-10-31T00:13:39;17.87;;;10.97;;
15716;SDS011;7960;50.908;4.204;2022-10-31T00:16:12;15.90;;;11.17;;
15716;SDS011;7960;50.908;4.204;2022-10-31T00:18:40;15.20;;;11.43;;
15716;SDS011;7960;50.908;4.204;2022-10-31T00:21:07;16.37;;;10.83;;
15716;SDS011;7960;50.908;4.204;2022-10-31T00:23:33;21.27;;;11.70;;
15716;SDS011;7960;50.908;4.204;2022-10-31T00:26:00;19.60;;;10.93;;
15716;SDS011;7960;50.908;4.204;2022-10-31T00:28:30;19.90;;;11.53;;
15716;SDS011;7960;50.908;4.204;2022-10-31T00:31:00;14.17;;;10.90;;
15716;SDS011;7960;50.908;4.204;2022-10-31T00:33:28;14.93;;;11.23;;
15716;SDS011;7960;50.908;4.204;2022-10-31T00:35:55;20.80;;;11.40;;
15716;SDS011;7960;50.908;4.204;2022-10-31T00:38:23;18.90;;;12.13;;
15716;SDS011;7960;50.908;4.204;2022-10-31T00:40:50;18.13;;;11.87;;
15716;SDS011;7960;50.908;4.204;2022-10-31T00:43:16;16.97;;;10.73;;
15716;SDS011;7960;50.908;4.204;2022-10-31T00:45:45;16.77;;;11.37;;
15716;SDS011;7960;50.908;4.204;2022-10-31T00:48:12;17.40;;;10.80;;
15716;SDS011;7960;50.908;4.204;2022-10-31T00:50:39;16.00;;;11.07;;
15716;SDS011;7960;50.908;4.204;2022-10-31T00:53:06;19.77;;;11.47;;
15716;SDS011;7960;50.908;4.204;2022-10-31T00:55:34;14.67;;;10.33;;
15716;SDS011;7960;50.908;4.204;2022-10-31T00:58:01;15.20;;;10.50;;
15716;SDS011;7960;50.908;4.204;2022-10-31T01:00:28;17.07;;;10.97;;
15716;SDS011;7960;50.908;4.204;2022-10-31T01:02:56;15.27;;;10.33;;
15716;SDS011;7960;50.908;4.204;2022-10-31T01:05:23;15.80;;;10.63;;
15716;SDS011;7960;50.908;4.204;2022-10-31T01:07:50;17.70;;;10.83;;
15716;SDS011;7960;50.908;4.204;2022-10-31T01:10:17;17.17;;;10.67;;
15716;SDS011;7960;50.908;4.204;2022-10-31T01:12:45;20.77;;;10.77;;
15716;SDS011;7960;50.908;4.204;2022-10-31T01:15:13;17.50;;;11.60;;
15716;SDS011;7960;50.908;4.204;2022-10-31T01:17:41;18.87;;;11.27;;
15716;SDS011;7960;50.908;4.204;2022-10-31T01:20:10;19.33;;;11.37;;
15716;SDS011;7960;50.908;4.204;2022-10-31T01:22:38;14.83;;;11.07;;
15716;SDS011;7960;50.908;4.204;2022-10-31T01:25:06;17.33;;;10.80;;
15716;SDS011;7960;50.908;4.204;2022-10-31T01:27:34;19.10;;;10.63;;
15716;SDS011;7960;50.908;4.204;2022-10-31T01:30:01;17.73;;;11.53;;
15716;SDS011;7960;50.908;4.204;2022-10-31T01:32:28;16.37;;;11.17;;
15716;SDS011;7960;50.908;4.204;2022-10-31T01:34:54;14.83;;;11.13;;
15716;SDS011;7960;50.908;4.204;2022-10-31T01:37:23;18.73;;;11.57;;
15716;SDS011;7960;50.908;4.204;2022-10-31T01:39:49;16.17;;;11.50;;
15716;SDS011;7960;50.908;4.204;2022-10-31T01:42:17;18.03;;;10.73;;
15716;SDS011;7960;50.908;4.204;2022-10-31T01:44:53;19.73;;;11.80;;
15716;SDS011;7960;50.908;4.204;2022-10-31T01:47:29;19.00;;;11.60;;
15716;SDS011;7960;50.908;4.204;2022-10-31T01:50:00;16.03;;;11.10;;
15716;SDS011;7960;50.908;4.204;2022-10-31T01:52:32;16.57;;;10.37;;
15716;SDS011;7960;50.908;4.204;2022-10-31T01:55:03;13.60;;;9.83;;
15716;SDS011;7960;50.908;4.204;2022-10-31T01:57:33;17.87;;;10.93;;
15716;SDS011;7960;50.908;4.204;2022-10-31T02:00:02;17.57;;;10.87;;
15716;SDS011;7960;50.908;4.204;2022-10-31T02:02:32;14.97;;;11.10;;
15716;SDS011;7960;50.908;4.204;2022-10-31T02:04:59;17.50;;;10.57;;
15716;SDS011;7960;50.908;4.204;2022-10-31T02:07:27;14.57;;;10.77;;
15716;SDS011;7960;50.908;4.204;2022-10-31T02:10:00;14.50;;;10.60;;
15716;SDS011;7960;50.908;4.204;2022-10-31T02:12:28;15.57;;;10.43;;
15716;SDS011;7960;50.908;4.204;2022-10-31T02:14:56;21.33;;;10.43;;
15716;SDS011;7960;50.908;4.204;2022-10-31T02:17:23;16.97;;;10.70;;
15716;SDS011;7960;50.908;4.204;2022-10-31T02:19:51;18.23;;;10.87;;
15716;SDS011;7960;50.908;4.204;2022-10-31T02:22:27;14.83;;;10.23;;
15716;SDS011;7960;50.908;4.204;2022-10-31T02:25:11;13.97;;;9.90;;
15716;SDS011;7960;50.908;4.204;2022-10-31T02:27:56;17.50;;;10.63;;
15716;SDS011;7960;50.908;4.204;2022-10-31T02:33:30;19.47;;;10.83;;
15716;SDS011;7960;50.908;4.204;2022-10-31T02:36:03;17.47;;;11.60;;
15716;SDS011;7960;50.908;4.204;2022-10-31T02:38:38;16.17;;;10.50;;
15716;SDS011;7960;50.908;4.204;2022-10-31T02:41:15;21.20;;;10.47;;
15716;SDS011;7960;50.908;4.204;2022-10-31T02:43:48;15.00;;;10.43;;
15716;SDS011;7960;50.908;4.204;2022-10-31T02:46:29;15.23;;;10.60;;
15716;SDS011;7960;50.908;4.204;2022-10-31T02:49:02;16.47;;;10.77;;
15716;SDS011;7960;50.908;4.204;2022-10-31T02:51:32;16.20;;;9.70;;
15716;SDS011;7960;50.908;4.204;2022-10-31T02:53:59;15.27;;;9.70;;
15716;SDS011;7960;50.908;4.204;2022-10-31T02:56:26;14.73;;;10.00;;
15716;SDS011;7960;50.908;4.204;2022-10-31T02:58:53;14.63;;;9.90;;
15716;SDS011;7960;50.908;4.204;2022-10-31T03:04:42;18.03;;;10.00;;
15716;SDS011;7960;50.908;4.204;2022-10-31T03:07:20;15.07;;;9.83;;
15716;SDS011;7960;50.908;4.204;2022-10-31T03:09:56;14.97;;;9.40;;
15716;SDS011;7960;50.908;4.204;2022-10-31T03:12:32;15.27;;;9.80;;
15716;SDS011;7960;50.908;4.204;2022-10-31T03:15:08;11.87;;;9.00;;
15716;SDS011;7960;50.908;4.204;2022-10-31T03:17:45;12.37;;;8.93;;
15716;SDS011;7960;50.908;4.204;2022-10-31T03:20:19;18.10;;;9.80;;
15716;SDS011;7960;50.908;4.204;2022-10-31T03:22:50;17.00;;;9.67;;
15716;SDS011;7960;50.908;4.204;2022-10-31T03:25:18;12.50;;;9.27;;
15716;SDS011;7960;50.908;4.204;2022-10-31T03:27:45;13.07;;;9.67;;
15716;SDS011;7960;50.908;4.204;2022-10-31T03:30:13;12.97;;;9.13;;
15716;SDS011;7960;50.908;4.204;2022-10-31T03:32:44;14.57;;;9.90;;
15716;SDS011;7960;50.908;4.204;2022-10-31T03:35:15;14.43;;;10.23;;
15716;SDS011;7960;50.908;4.204;2022-10-31T03:37:45;15.83;;;10.30;;
15716;SDS011;7960;50.908;4.204;2022-10-31T03:40:14;14.00;;;10.40;;
15716;SDS011;7960;50.908;4.204;2022-10-31T03:42:43;17.43;;;10.77;;
15716;SDS011;7960;50.908;4.204;2022-10-31T03:45:15;14.53;;;10.00;;
15716;SDS011;7960;50.908;4.204;2022-10-31T03:47:48;16.33;;;10.43;;
15716;SDS011;7960;50.908;4.204;2022-10-31T03:50:15;15.67;;;9.13;;
15716;SDS011;7960;50.908;4.204;2022-10-31T03:52:43;15.87;;;10.37;;
15716;SDS011;7960;50.908;4.204;2022-10-31T03:55:17;12.90;;;9.83;;
15716;SDS011;7960;50.908;4.204;2022-10-31T03:57:46;16.57;;;9.83;;
15716;SDS011;7960;50.908;4.204;2022-10-31T04:00:19;17.17;;;10.10;;
15716;SDS011;7960;50.908;4.204;2022-10-31T04:02:50;14.47;;;10.30;;
15716;SDS011;7960;50.908;4.204;2022-10-31T04:05:21;18.33;;;10.23;;
15716;SDS011;7960;50.908;4.204;2022-10-31T04:07:52;13.37;;;9.87;;
15716;SDS011;7960;50.908;4.204;2022-10-31T04:10:21;16.53;;;10.50;;
15716;SDS011;7960;50.908;4.204;2022-10-31T04:12:52;14.50;;;10.37;;
15716;SDS011;7960;50.908;4.204;2022-10-31T04:15:24;14.33;;;10.80;;
15716;SDS011;7960;50.908;4.204;2022-10-31T04:17:55;17.27;;;11.27;;
15716;SDS011;7960;50.908;4.204;2022-10-31T04:20:32;21.10;;;11.10;;
15716;SDS011;7960;50.908;4.204;2022-10-31T04:23:00;15.83;;;10.63;;
15716;SDS011;7960;50.908;4.204;2022-10-31T04:25:27;15.77;;;10.77;;
15716;SDS011;7960;50.908;4.204;2022-10-31T04:27:54;22.07;;;11.90;;
15716;SDS011;7960;50.908;4.204;2022-10-31T04:30:21;17.30;;;11.40;;
15716;SDS011;7960;50.908;4.204;2022-10-31T04:32:48;17.97;;;10.67;;
15716;SDS011;7960;50.908;4.204;2022-10-31T04:35:16;17.43;;;11.00;;
15716;SDS011;7960;50.908;4.204;2022-10-31T04:37:43;17.23;;;11.50;;
15716;SDS011;7960;50.908;4.204;2022-10-31T04:40:10;20.33;;;11.93;;
15716;SDS011;7960;50.908;4.204;2022-10-31T04:42:37;20.13;;;12.03;;
15716;SDS011;7960;50.908;4.204;2022-10-31T04:45:04;18.27;;;11.23;;
15716;SDS011;7960;50.908;4.204;2022-10-31T04:47:32;21.90;;;11.80;;
15716;SDS011;7960;50.908;4.204;2022-10-31T04:49:59;18.40;;;12.50;;
15716;SDS011;7960;50.908;4.204;2022-10-31T04:52:28;22.73;;;13.13;;
15716;SDS011;7960;50.908;4.204;2022-10-31T04:54:54;22.60;;;12.07;;
15716;SDS011;7960;50.908;4.204;2022-10-31T04:57:21;18.83;;;12.03;;
15716;SDS011;7960;50.908;4.204;2022-10-31T04:59:48;26.33;;;13.40;;
15716;SDS011;7960;50.908;4.204;2022-10-31T05:02:15;20.97;;;12.53;;
15716;SDS011;7960;50.908;4.204;2022-10-31T05:04:42;19.60;;;12.13;;
15716;SDS011;7960;50.908;4.204;2022-10-31T05:07:09;19.30;;;12.40;;
15716;SDS011;7960;50.908;4.204;2022-10-31T05:09:37;21.17;;;11.67;;
15716;SDS011;7960;50.908;4.204;2022-10-31T05:12:04;19.73;;;12.53;;
15716;SDS011;7960;50.908;4.204;2022-10-31T05:14:31;17.80;;;11.63;;
15716;SDS011;7960;50.908;4.204;2022-10-31T05:16:58;20.17;;;12.63;;
15716;SDS011;7960;50.908;4.204;2022-10-31T05:19:24;19.03;;;12.20;;
15716;SDS011;7960;50.908;4.204;2022-10-31T05:21:51;18.40;;;12.23;;
15716;SDS011;7960;50.908;4.204;2022-10-31T05:24:18;16.20;;;11.70;;
15716;SDS011;7960;50.908;4.204;2022-10-31T05:26:48;17.27;;;11.77;;
15716;SDS011;7960;50.908;4.204;2022-10-31T05:29:15;20.63;;;12.13;;
15716;SDS011;7960;50.908;4.204;2022-10-31T05:31:42;21.07;;;12.57;;
15716;SDS011;7960;50.908;4.204;2022-10-31T05:34:09;17.20;;;11.70;;
15716;SDS011;7960;50.908;4.204;2022-10-31T05:36:35;16.40;;;11.77;;
15716;SDS011;7960;50.908;4.204;2022-10-31T05:39:02;18.47;;;12.07;;
15716;SDS011;7960;50.908;4.204;2022-10-31T05:41:29;17.93;;;11.87;;
15716;SDS011;7960;50.908;4.204;2022-10-31T05:43:57;17.23;;;11.60;;
15716;SDS011;7960;50.908;4.204;2022-10-31T05:46:24;21.33;;;12.20;;
15716;SDS011;7960;50.908;4.204;2022-10-31T05:48:51;15.33;;;11.30;;
15716;SDS011;7960;50.908;4.204;2022-10-31T05:51:18;20.40;;;11.63;;
15716;SDS011;7960;50.908;4.204;2022-10-31T05:53:45;17.33;;;12.17;;
15716;SDS011;7960;50.908;4.204;2022-10-31T05:56:13;18.17;;;12.23;;
15716;SDS011;7960;50.908;4.204;2022-10-31T05:58:39;15.53;;;11.03;;
15716;SDS011;7960;50.908;4.204;2022-10-31T06:01:07;18.00;;;12.23;;
15716;SDS011;7960;50.908;4.204;2022-10-31T06:03:34;17.50;;;11.40;;
15716;SDS011;7960;50.908;4.204;2022-10-31T06:06:01;18.47;;;11.73;;
15716;SDS011;7960;50.908;4.204;2022-10-31T06:08:28;16.40;;;11.53;;
15716;SDS011;7960;50.908;4.204;2022-10-31T06:10:55;23.13;;;11.87;;
15716;SDS011;7960;50.908;4.204;2022-10-31T06:13:22;16.53;;;12.30;;
15716;SDS011;7960;50.908;4.204;2022-10-31T06:15:48;15.33;;;12.03;;
15716;SDS011;7960;50.908;4.204;2022-10-31T06:18:17;27.07;;;13.40;;
15716;SDS011;7960;50.908;4.204;2022-10-31T06:20:44;18.53;;;12.73;;
15716;SDS011;7960;50.908;4.204;2022-10-31T06:23:10;20.47;;;13.00;;
15716;SDS011;7960;50.908;4.204;2022-10-31T06:25:37;17.50;;;11.93;;
15716;SDS011;7960;50.908;4.204;2022-10-31T06:28:04;15.97;;;12.37;;
15716;SDS011;7960;50.908;4.204;2022-10-31T06:30:31;21.23;;;12.83;;
15716;SDS011;7960;50.908;4.204;2022-10-31T06:33:01;23.77;;;13.43;;
15716;SDS011;7960;50.908;4.204;2022-10-31T06:35:30;19.80;;;13.23;;
15716;SDS011;7960;50.908;4.204;2022-10-31T06:37:57;22.40;;;13.07;;
15716;SDS011;7960;50.908;4.204;2022-10-31T06:40:24;22.30;;;14.80;;
15716;SDS011;7960;50.908;4.204;2022-10-31T06:42:57;18.23;;;12.90;;
15716;SDS011;7960;50.908;4.204;2022-10-31T06:45:24;21.60;;;13.03;;
15716;SDS011;7960;50.908;4.204;2022-10-31T06:47:52;20.87;;;13.03;;
15716;SDS011;7960;50.908;4.204;2022-10-31T06:50:19;22.10;;;13.40;;
15716;SDS011;7960;50.908;4.204;2022-10-31T06:52:51;20.70;;;13.00;;
15716;SDS011;7960;50.908;4.204;2022-10-31T06:55:18;29.10;;;17.80;;
15716;SDS011;7960;50.908;4.204;2022-10-31T06:57:50;37.87;;;19.40;;
15716;SDS011;7960;50.908;4.204;2022-10-31T07:00:17;25.60;;;16.33;;
15716;SDS011;7960;50.908;4.204;2022-10-31T07:02:52;21.63;;;15.03;;
15716;SDS011;7960;50.908;4.204;2022-10-31T07:05:19;22.87;;;13.90;;
15716;SDS011;7960;50.908;4.204;2022-10-31T07:07:46;20.50;;;13.20;;
15716;SDS011;7960;50.908;4.204;2022-10-31T07:10:14;18.00;;;13.00;;
15716;SDS011;7960;50.908;4.204;2022-10-31T07:12:41;19.97;;;13.13;;
15716;SDS011;7960;50.908;4.204;2022-10-31T07:15:08;22.57;;;16.80;;
15716;SDS011;7960;50.908;4.204;2022-10-31T07:17:35;21.57;;;13.37;;
15716;SDS011;7960;50.908;4.204;2022-10-31T07:20:03;20.60;;;13.93;;
15716;SDS011;7960;50.908;4.204;2022-10-31T07:22:33;24.47;;;14.83;;
15716;SDS011;7960;50.908;4.204;2022-10-31T07:25:01;24.83;;;14.40;;
15716;SDS011;7960;50.908;4.204;2022-10-31T07:27:34;21.53;;;14.03;;
15716;SDS011;7960;50.908;4.204;2022-10-31T07:30:02;22.07;;;14.07;;
15716;SDS011;7960;50.908;4.204;2022-10-31T07:32:36;20.63;;;13.70;;
15716;SDS011;7960;50.908;4.204;2022-10-31T07:35:04;21.13;;;13.60;;
15716;SDS011;7960;50.908;4.204;2022-10-31T07:37:31;21.87;;;14.47;;
15716;SDS011;7960;50.908;4.204;2022-10-31T07:39:58;24.50;;;14.30;;
15716;SDS011;7960;50.908;4.204;2022-10-31T07:42:25;21.47;;;14.07;;
15716;SDS011;7960;50.908;4.204;2022-10-31T07:44:53;19.70;;;14.00;;
15716;SDS011;7960;50.908;4.204;2022-10-31T07:47:20;22.90;;;15.07;;
15716;SDS011;7960;50.908;4.204;2022-10-31T07:49:47;22.40;;;13.17;;
15716;SDS011;7960;50.908;4.204;2022-10-31T07:52:13;27.47;;;14.77;;
15716;SDS011;7960;50.908;4.204;2022-10-31T07:54:40;24.30;;;14.07;;
15716;SDS011;7960;50.908;4.204;2022-10-31T07:57:07;21.80;;;12.80;;
15716;SDS011;7960;50.908;4.204;2022-10-31T07:59:34;28.43;;;14.30;;
15716;SDS011;7960;50.908;4.204;2022-10-31T08:02:02;22.87;;;14.90;;
15716;SDS011;7960;50.908;4.204;2022-10-31T08:04:29;21.47;;;13.83;;
15716;SDS011;7960;50.908;4.204;2022-10-31T08:06:56;23.47;;;14.20;;
15716;SDS011;7960;50.908;4.204;2022-10-31T08:09:23;19.70;;;14.17;;
15716;SDS011;7960;50.908;4.204;2022-10-31T08:11:49;24.43;;;14.43;;
15716;SDS011;7960;50.908;4.204;2022-10-31T08:14:16;20.83;;;15.37;;
15716;SDS011;7960;50.908;4.204;2022-10-31T08:16:43;29.83;;;15.23;;
15716;SDS011;7960;50.908;4.204;2022-10-31T08:19:11;23.83;;;16.10;;
15716;SDS011;7960;50.908;4.204;2022-10-31T08:21:38;24.17;;;14.80;;
15716;SDS011;7960;50.908;4.204;2022-10-31T08:24:05;27.13;;;14.93;;
15716;SDS011;7960;50.908;4.204;2022-10-31T08:26:32;24.90;;;14.30;;
15716;SDS011;7960;50.908;4.204;2022-10-31T08:28:59;20.93;;;13.63;;
15716;SDS011;7960;50.908;4.204;2022-10-31T08:31:26;26.60;;;14.17;;
15716;SDS011;7960;50.908;4.204;2022-10-31T08:33:54;23.37;;;14.63;;
15716;SDS011;7960;50.908;4.204;2022-10-31T08:36:22;26.77;;;15.13;;
15716;SDS011;7960;50.908;4.204;2022-10-31T08:38:49;21.43;;;13.97;;
15716;SDS011;7960;50.908;4.204;2022-10-31T08:41:16;22.00;;;14.33;;
15716;SDS011;7960;50.908;4.204;2022-10-31T08:43:42;18.90;;;13.50;;
15716;SDS011;7960;50.908;4.204;2022-10-31T08:46:09;20.90;;;14.23;;
15716;SDS011;7960;50.908;4.204;2022-10-31T08:48:36;20.03;;;14.10;;
15716;SDS011;7960;50.908;4.204;2022-10-31T08:51:03;24.63;;;14.27;;
15716;SDS011;7960;50.908;4.204;2022-10-31T08:53:32;19.50;;;14.03;;
15716;SDS011;7960;50.908;4.204;2022-10-31T08:55:59;24.67;;;14.50;;
15716;SDS011;7960;50.908;4.204;2022-10-31T08:58:26;22.83;;;13.60;;
15716;SDS011;7960;50.908;4.204;2022-10-31T09:00:53;22.17;;;14.80;;
15716;SDS011;7960;50.908;4.204;2022-10-31T09:03:22;27.47;;;14.87;;
15716;SDS011;7960;50.908;4.204;2022-10-31T09:05:54;22.53;;;14.83;;
15716;SDS011;7960;50.908;4.204;2022-10-31T09:08:21;20.10;;;14.40;;
15716;SDS011;7960;50.908;4.204;2022-10-31T09:10:50;20.50;;;14.43;;
15716;SDS011;7960;50.908;4.204;2022-10-31T09:13:18;22.93;;;14.50;;
15716;SDS011;7960;50.908;4.204;2022-10-31T09:15:46;19.80;;;14.27;;
15716;SDS011;7960;50.908;4.204;2022-10-31T09:18:14;24.13;;;14.00;;
15716;SDS011;7960;50.908;4.204;2022-10-31T09:20:43;20.93;;;13.87;;
15716;SDS011;7960;50.908;4.204;2022-10-31T09:23:11;23.37;;;14.13;;
15716;SDS011;7960;50.908;4.204;2022-10-31T09:25:39;21.10;;;14.97;;
15716;SDS011;7960;50.908;4.204;2022-10-31T09:28:08;19.77;;;14.83;;
15716;SDS011;7960;50.908;4.204;2022-10-31T09:30:36;21.60;;;14.00;;
15716;SDS011;7960;50.908;4.204;2022-10-31T09:33:04;22.43;;;15.07;;
15716;SDS011;7960;50.908;4.204;2022-10-31T09:35:32;21.93;;;14.83;;
15716;SDS011;7960;50.908;4.204;2022-10-31T09:38:00;20.17;;;14.43;;
15716;SDS011;7960;50.908;4.204;2022-10-31T09:40:30;20.37;;;15.03;;
15716;SDS011;7960;50.908;4.204;2022-10-31T09:43:02;19.73;;;15.03;;
15716;SDS011;7960;50.908;4.204;2022-10-31T09:45:40;24.03;;;15.67;;
15716;SDS011;7960;50.908;4.204;2022-10-31T09:48:17;25.03;;;15.33;;
15716;SDS011;7960;50.908;4.204;2022-10-31T09:50:58;23.80;;;15.43;;
15716;SDS011;7960;50.908;4.204;2022-10-31T09:53:29;29.47;;;15.50;;
15716;SDS011;7960;50.908;4.204;2022-10-31T09:56:04;25.30;;;16.00;;
15716;SDS011;7960;50.908;4.204;2022-10-31T09:58:35;18.03;;;13.73;;
15716;SDS011;7960;50.908;4.204;2022-10-31T10:01:09;21.40;;;13.53;;
15716;SDS011;7960;50.908;4.204;2022-10-31T10:03:50;17.50;;;13.40;;
15716;SDS011;7960;50.908;4.204;2022-10-31T10:06:22;18.80;;;13.63;;
15716;SDS011;7960;50.908;4.204;2022-10-31T10:08:51;15.47;;;12.80;;
15716;SDS011;7960;50.908;4.204;2022-10-31T10:11:22;21.63;;;13.73;;
15716;SDS011;7960;50.908;4.204;2022-10-31T10:14:21;21.37;;;14.10;;
15716;SDS011;7960;50.908;4.204;2022-10-31T10:17:04;18.83;;;13.63;;
15716;SDS011;7960;50.908;4.204;2022-10-31T10:19:44;19.30;;;13.33;;
15716;SDS011;7960;50.908;4.204;2022-10-31T10:22:27;21.73;;;13.87;;
15716;SDS011;7960;50.908;4.204;2022-10-31T10:25:02;19.63;;;13.43;;
15716;SDS011;7960;50.908;4.204;2022-10-31T10:27:41;17.30;;;12.47;;
15716;SDS011;7960;50.908;4.204;2022-10-31T10:30:35;17.93;;;12.97;;
15716;SDS011;7960;50.908;4.204;2022-10-31T10:33:09;15.03;;;12.57;;
15716;SDS011;7960;50.908;4.204;2022-10-31T10:35:39;18.60;;;13.07;;
15716;SDS011;7960;50.908;4.204;2022-10-31T10:38:11;19.37;;;12.17;;
15716;SDS011;7960;50.908;4.204;2022-10-31T10:40:42;21.20;;;13.90;;
15716;SDS011;7960;50.908;4.204;2022-10-31T10:43:18;19.30;;;12.73;;
15716;SDS011;7960;50.908;4.204;2022-10-31T10:45:50;16.07;;;11.87;;
15716;SDS011;7960;50.908;4.204;2022-10-31T10:48:41;18.93;;;13.77;;
15716;SDS011;7960;50.908;4.204;2022-10-31T10:51:20;19.27;;;13.67;;
15716;SDS011;7960;50.908;4.204;2022-10-31T10:53:52;18.83;;;12.87;;
15716;SDS011;7960;50.908;4.204;2022-10-31T10:56:48;18.17;;;12.20;;
15716;SDS011;7960;50.908;4.204;2022-10-31T10:59:26;17.77;;;11.37;;
15716;SDS011;7960;50.908;4.204;2022-10-31T11:01:55;18.50;;;12.43;;
15716;SDS011;7960;50.908;4.204;2022-10-31T11:04:25;16.60;;;12.40;;
15716;SDS011;7960;50.908;4.204;2022-10-31T11:06:56;22.93;;;12.40;;
15716;SDS011;7960;50.908;4.204;2022-10-31T11:09:24;24.57;;;12.53;;
15716;SDS011;7960;50.908;4.204;2022-10-31T11:11:51;20.43;;;11.33;;
15716;SDS011;7960;50.908;4.204;2022-10-31T11:14:18;20.03;;;12.70;;
15716;SDS011;7960;50.908;4.204;2022-10-31T11:16:46;17.73;;;12.20;;
15716;SDS011;7960;50.908;4.204;2022-10-31T11:19:17;19.20;;;11.60;;
15716;SDS011;7960;50.908;4.204;2022-10-31T11:21:46;17.23;;;11.87;;
15716;SDS011;7960;50.908;4.204;2022-10-31T11:24:15;15.27;;;11.40;;
15716;SDS011;7960;50.908;4.204;2022-10-31T11:26:44;22.53;;;11.57;;
15716;SDS011;7960;50.908;4.204;2022-10-31T11:29:13;22.43;;;12.03;;
15716;SDS011;7960;50.908;4.204;2022-10-31T11:31:41;21.47;;;11.67;;
15716;SDS011;7960;50.908;4.204;2022-10-31T11:34:13;21.80;;;12.07;;
15716;SDS011;7960;50.908;4.204;2022-10-31T11:36:49;23.63;;;11.70;;
15716;SDS011;7960;50.908;4.204;2022-10-31T11:39:17;21.90;;;11.67;;
15716;SDS011;7960;50.908;4.204;2022-10-31T11:41:47;21.10;;;11.97;;
15716;SDS011;7960;50.908;4.204;2022-10-31T11:44:16;23.47;;;12.07;;
15716;SDS011;7960;50.908;4.204;2022-10-31T11:46:46;23.73;;;11.70;;
15716;SDS011;7960;50.908;4.204;2022-10-31T11:49:15;19.73;;;13.03;;
15716;SDS011;7960;50.908;4.204;2022-10-31T11:51:47;21.37;;;12.40;;
15716;SDS011;7960;50.908;4.204;2022-10-31T11:54:19;20.47;;;12.20;;
15716;SDS011;7960;50.908;4.204;2022-10-31T11:56:48;27.90;;;12.67;;
15716;SDS011;7960;50.908;4.204;2022-10-31T11:59:17;29.23;;;12.80;;
15716;SDS011;7960;50.908;4.204;2022-10-31T12:01:49;24.50;;;11.50;;
15716;SDS011;7960;50.908;4.204;2022-10-31T12:04:18;32.87;;;12.97;;
15716;SDS011;7960;50.908;4.204;2022-10-31T12:06:54;29.80;;;13.67;;
15716;SDS011;7960;50.908;4.204;2022-10-31T12:09:21;19.30;;;11.17;;
15716;SDS011;7960;50.908;4.204;2022-10-31T12:11:59;26.47;;;12.27;;
15716;SDS011;7960;50.908;4.204;2022-10-31T12:14:38;23.40;;;13.87;;
15716;SDS011;7960;50.908;4.204;2022-10-31T12:17:12;24.57;;;11.70;;
15716;SDS011;7960;50.908;4.204;2022-10-31T12:19:46;27.57;;;15.27;;
15716;SDS011;7960;50.908;4.204;2022-10-31T12:22:25;23.43;;;11.70;;
15716;SDS011;7960;50.908;4.204;2022-10-31T12:25:10;19.23;;;10.93;;
15716;SDS011;7960;50.908;4.204;2022-10-31T12:27:51;22.80;;;11.07;;
15716;SDS011;7960;50.908;4.204;2022-10-31T12:30:27;24.97;;;10.90;;
15716;SDS011;7960;50.908;4.204;2022-10-31T12:33:07;26.60;;;15.23;;
15716;SDS011;7960;50.908;4.204;2022-10-31T12:35:53;23.43;;;14.40;;
15716;SDS011;7960;50.908;4.204;2022-10-31T12:38:44;25.00;;;13.00;;
15716;SDS011;7960;50.908;4.204;2022-10-31T12:41:31;28.67;;;11.53;;
15716;SDS011;7960;50.908;4.204;2022-10-31T12:44:13;22.03;;;12.00;;
15716;SDS011;7960;50.908;4.204;2022-10-31T12:46:57;16.33;;;10.37;;
15716;SDS011;7960;50.908;4.204;2022-10-31T12:49:38;18.67;;;10.73;;
15716;SDS011;7960;50.908;4.204;2022-10-31T12:55:16;28.23;;;10.63;;
15716;SDS011;7960;50.908;4.204;2022-10-31T12:58:00;21.20;;;10.40;;
15716;SDS011;7960;50.908;4.204;2022-10-31T13:00:30;17.00;;;8.50;;
15716;SDS011;7960;50.908;4.204;2022-10-31T13:03:05;18.73;;;9.30;;
15716;SDS011;7960;50.908;4.204;2022-10-31T13:05:44;29.70;;;10.40;;
15716;SDS011;7960;50.908;4.204;2022-10-31T13:08:16;14.87;;;8.53;;
15716;SDS011;7960;50.908;4.204;2022-10-31T13:10:45;24.90;;;9.80;;
15716;SDS011;7960;50.908;4.204;2022-10-31T13:13:18;24.30;;;10.27;;
15716;SDS011;7960;50.908;4.204;2022-10-31T13:15:50;15.50;;;8.53;;
15716;SDS011;7960;50.908;4.204;2022-10-31T13:18:24;21.67;;;9.60;;
15716;SDS011;7960;50.908;4.204;2022-10-31T13:20:53;19.73;;;9.13;;
15716;SDS011;7960;50.908;4.204;2022-10-31T13:23:24;20.53;;;9.57;;
15716;SDS011;7960;50.908;4.204;2022-10-31T13:25:55;18.23;;;8.53;;
15716;SDS011;7960;50.908;4.204;2022-10-31T13:28:24;21.10;;;11.80;;
15716;SDS011;7960;50.908;4.204;2022-10-31T13:30:57;15.33;;;9.20;;
15716;SDS011;7960;50.908;4.204;2022-10-31T13:33:25;22.57;;;11.87;;
15716;SDS011;7960;50.908;4.204;2022-10-31T13:35:58;17.47;;;9.63;;
15716;SDS011;7960;50.908;4.204;2022-10-31T13:38:37;16.33;;;9.43;;
15716;SDS011;7960;50.908;4.204;2022-10-31T13:41:11;17.10;;;9.87;;
15716;SDS011;7960;50.908;4.204;2022-10-31T13:43:56;20.23;;;9.90;;
15716;SDS011;7960;50.908;4.204;2022-10-31T13:46:34;16.93;;;9.20;;
15716;SDS011;7960;50.908;4.204;2022-10-31T13:49:02;26.93;;;10.57;;
15716;SDS011;7960;50.908;4.204;2022-10-31T13:51:30;20.07;;;9.60;;
15716;SDS011;7960;50.908;4.204;2022-10-31T13:54:06;21.13;;;8.97;;
15716;SDS011;7960;50.908;4.204;2022-10-31T13:56:48;20.03;;;8.60;;
15716;SDS011;7960;50.908;4.204;2022-10-31T13:59:17;13.93;;;8.43;;
15716;SDS011;7960;50.908;4.204;2022-10-31T14:01:50;14.00;;;7.93;;
15716;SDS011;7960;50.908;4.204;2022-10-31T14:04:20;14.13;;;8.17;;
15716;SDS011;7960;50.908;4.204;2022-10-31T14:07:04;18.07;;;8.73;;
15716;SDS011;7960;50.908;4.204;2022-10-31T14:09:35;12.93;;;7.63;;
15716;SDS011;7960;50.908;4.204;2022-10-31T14:12:04;14.83;;;7.23;;
15716;SDS011;7960;50.908;4.204;2022-10-31T14:14:44;21.47;;;8.47;;
15716;SDS011;7960;50.908;4.204;2022-10-31T14:17:23;17.80;;;8.77;;
15716;SDS011;7960;50.908;4.204;2022-10-31T14:20:02;14.87;;;8.23;;
15716;SDS011;7960;50.908;4.204;2022-10-31T14:22:45;23.67;;;8.97;;
15716;SDS011;7960;50.908;4.204;2022-10-31T14:25:26;15.30;;;8.10;;
15716;SDS011;7960;50.908;4.204;2022-10-31T14:27:56;19.43;;;9.07;;
15716;SDS011;7960;50.908;4.204;2022-10-31T14:30:24;16.97;;;8.17;;
15716;SDS011;7960;50.908;4.204;2022-10-31T14:32:54;15.07;;;8.10;;
15716;SDS011;7960;50.908;4.204;2022-10-31T14:35:25;18.10;;;9.13;;
15716;SDS011;7960;50.908;4.204;2022-10-31T14:38:10;20.77;;;9.03;;
15716;SDS011;7960;50.908;4.204;2022-10-31T14:41:13;18.13;;;8.33;;
15716;SDS011;7960;50.908;4.204;2022-10-31T14:43:53;18.17;;;8.40;;
15716;SDS011;7960;50.908;4.204;2022-10-31T14:46:41;16.53;;;8.07;;
15716;SDS011;7960;50.908;4.204;2022-10-31T14:49:21;15.43;;;8.37;;
15716;SDS011;7960;50.908;4.204;2022-10-31T14:51:59;19.90;;;8.33;;
15716;SDS011;7960;50.908;4.204;2022-10-31T14:54:28;15.87;;;8.20;;
15716;SDS011;7960;50.908;4.204;2022-10-31T14:59:34;13.93;;;7.57;;
15716;SDS011;7960;50.908;4.204;2022-10-31T15:02:08;16.77;;;8.07;;
15716;SDS011;7960;50.908;4.204;2022-10-31T15:04:39;18.13;;;8.70;;
15716;SDS011;7960;50.908;4.204;2022-10-31T15:07:10;16.93;;;8.10;;
15716;SDS011;7960;50.908;4.204;2022-10-31T15:09:40;14.50;;;8.33;;